Stations météo

Publicité
Toulon, France (7660): Température de l'air & dewpoint: 17.01.2017 01:00:00 - 23.01.2017 01:00:00 (CET)Toulon, France (7660): Vitesse du vent & gusts: 17.01.2017 01:00:00 - 23.01.2017 01:00:00 (CET)Toulon, France (7660): Direction du vent: 17.01.2017 01:00:00 - 23.01.2017 01:00:00 (CET)Toulon, France (7660): reduced air pressure: 17.01.2017 01:00:00 - 23.01.2017 01:00:00 (CET)Toulon, France (7660): Quantités de précipitations: 17.01.2017 01:00:00 - 23.01.2017 01:00:00 (CET)
Date & Time tt [°C] td [°C] ff [km/h] ff [knt] fx [km/h] fx [knt] dd ppp [hPa] rr [mm]
23.01.2017 01:00:00 11,0 4,9 13 7 26 14 ENE 1018,4 -
23.01.2017 00:00:00 11,1 5,4 18 10 31 17 E 1019,1 0,2
22.01.2017 23:00:00 10,8 5,1 16 9 44 24 E 1018,9 0,2
22.01.2017 22:00:00 11,0 4,7 22 12 44 24 E 1018,7 -
22.01.2017 21:00:00 10,5 4,8 21 11 42 23 E 1019,0 0,0
22.01.2017 20:00:00 9,8 5,6 26 14 50 27 ENE 1019,3 0,4
22.01.2017 19:00:00 9,5 6,6 18 10 44 24 E 1019,4 -
22.01.2017 18:00:00 10,1 5,7 28 15 54 29 E 1019,0 0,0
22.01.2017 17:00:00 10,3 5,5 29 16 59 32 E 1018,7 0,0
22.01.2017 16:00:00 10,1 6,2 34 18 59 32 E 1018,6 -
22.01.2017 15:00:00 10,2 5,8 29 16 59 32 E 1018,5 0,0
22.01.2017 14:00:00 10,9 5,8 34 18 59 32 E 1018,3 0,0
22.01.2017 13:00:00 10,7 5,4 28 15 59 32 ENE 1018,4 -
22.01.2017 12:00:00 9,9 5,7 26 14 54 29 E 1019,1 0,4
22.01.2017 11:00:00 8,6 5,7 34 18 57 31 ENE 1019,8 1,0
22.01.2017 10:00:00 8,5 5,6 29 16 57 31 ENE 1020,0 -
22.01.2017 09:00:00 9,1 4,5 28 15 61 33 ENE 1018,9 0,0
22.01.2017 08:00:00 8,8 4,4 34 18 63 34 ENE 1018,5 0,2
22.01.2017 07:00:00 8,8 4,8 35 19 70 38 ENE 1018,3 -
22.01.2017 06:00:00 9,0 6,1 28 15 70 38 E 1018,3 0,8
22.01.2017 05:00:00 9,6 5,6 35 19 63 34 E 1018,2 0,2
22.01.2017 04:00:00 9,1 6,4 24 13 98 53 E 1018,8 -
22.01.2017 03:00:00 11,8 5,2 52 28 89 48 ESE 1018,9 0,0
22.01.2017 02:00:00 13,0 0,0 31 17 57 31 E 1018,5 0,0
22.01.2017 01:00:00 12,8 -0,1 31 17 59 32 E 1018,8 -
22.01.2017 00:00:00 12,7 -1,6 24 13 55 30 E 1019,1 0,0
21.01.2017 23:00:00 13,1 -2,0 35 19 59 32 E 1018,9 0,0
21.01.2017 22:00:00 12,6 -2,9 24 13 44 24 ENE 1018,9 -
21.01.2017 21:00:00 12,5 -1,8 24 13 44 24 ENE 1019,1 0,0
21.01.2017 20:00:00 12,3 1,3 22 12 50 27 E 1019,1 0,0
21.01.2017 19:00:00 12,5 -1,5 31 17 55 30 E 1018,8 -
21.01.2017 18:00:00 12,4 0,8 34 18 61 33 E 1018,7 0,0
21.01.2017 17:00:00 13,1 0,5 44 24 67 36 E 1019,0 0,0
21.01.2017 16:00:00 13,4 -1,0 28 15 54 29 E 1018,9 -
21.01.2017 15:00:00 13,5 0,1 42 23 68 37 E 1019,0 0,0
21.01.2017 14:00:00 13,5 -0,2 37 20 74 40 E 1019,8 0,0
21.01.2017 13:00:00 13,6 0,2 42 23 74 40 E 1020,8 -
21.01.2017 12:00:00 12,8 -0,5 48 26 81 44 E 1021,5 0,0
21.01.2017 11:00:00 13,7 -0,4 48 26 70 38 E 1022,1 0,0
21.01.2017 10:00:00 12,4 1,4 24 13 44 24 E 1022,5 -
21.01.2017 09:00:00 10,8 0,8 22 12 42 23 E 1022,3 0,0
21.01.2017 08:00:00 10,1 0,4 18 10 39 21 E 1022,2 0,0
21.01.2017 07:00:00 10,1 0,1 21 11 41 22 E 1022,5 -
21.01.2017 06:00:00 10,1 0,4 24 13 39 21 E 1022,5 0,0
21.01.2017 05:00:00 10,1 0,9 21 11 39 21 E 1023,3 0,0
21.01.2017 04:00:00 10,4 1,0 21 11 42 23 E 1023,7 -
21.01.2017 03:00:00 10,3 0,3 22 12 44 24 E 1023,8 0,0
21.01.2017 02:00:00 10,3 -0,2 21 11 41 22 E 1024,1 0,0
21.01.2017 01:00:00 10,4 -0,4 22 12 41 22 ENE 1024,4 -
21.01.2017 00:00:00 10,3 0,3 24 13 39 21 E 1025,2 0,0
20.01.2017 23:00:00 10,2 0,8 16 9 31 17 E 1025,3 0,0
20.01.2017 22:00:00 10,1 1,2 16 9 28 15 E 1025,3 -
20.01.2017 21:00:00 9,7 1,3 16 9 35 19 E 1025,7 0,0
20.01.2017 20:00:00 9,6 1,5 21 11 35 19 E 1025,6 0,0
20.01.2017 19:00:00 9,7 2,5 18 10 39 21 E 1025,6 -
20.01.2017 18:00:00 9,4 2,0 21 11 52 28 ENE 1025,5 0,0
20.01.2017 17:00:00 9,9 1,8 24 13 52 28 E 1025,6 0,0
20.01.2017 16:00:00 10,4 3,0 31 17 50 27 E 1026,0 -
20.01.2017 15:00:00 10,7 3,5 39 21 61 33 E 1025,8 0,0
20.01.2017 14:00:00 11,1 3,9 44 24 59 32 ESE 1025,7 0,0
20.01.2017 13:00:00 11,1 2,6 41 22 61 33 ESE 1026,5 -
20.01.2017 12:00:00 12,0 2,7 41 22 67 36 E 1027,0 0,0
20.01.2017 11:00:00 11,6 2,3 42 23 65 35 E 1027,3 0,0
20.01.2017 10:00:00 11,5 2,0 28 15 50 27 E 1026,9 -
20.01.2017 09:00:00 10,2 0,5 26 14 41 22 E 1026,6 0,0
20.01.2017 08:00:00 8,9 -0,7 28 15 42 23 E 1026,5 0,0
20.01.2017 07:00:00 8,8 -1,6 28 15 44 24 E 1026,0 -
20.01.2017 06:00:00 9,2 -1,0 29 16 50 27 E 1025,6 0,0
20.01.2017 05:00:00 9,1 -1,6 26 14 52 28 E 1025,7 0,0
20.01.2017 04:00:00 9,0 -0,9 28 15 46 25 E 1026,1 -
20.01.2017 03:00:00 8,7 0,4 26 14 42 23 E 1026,3 0,0
20.01.2017 02:00:00 8,8 0,2 24 13 50 27 E 1026,1 0,0
20.01.2017 01:00:00 8,6 0,3 22 12 35 19 E 1026,3 -
20.01.2017 00:00:00 8,7 -0,1 18 10 34 18 E 1026,6 0,0
19.01.2017 23:00:00 9,4 -0,2 21 11 35 19 E 1026,7 0,0
19.01.2017 22:00:00 9,7 -0,2 16 9 31 17 E 1026,8 -
19.01.2017 21:00:00 9,6 -1,2 13 7 22 12 ENE 1026,4 0,0
19.01.2017 20:00:00 9,8 -0,7 13 7 24 13 ENE 1026,1 0,0
19.01.2017 19:00:00 9,9 -0,9 8 4 11 6 NNE 1025,6 -
19.01.2017 18:00:00 10,0 -1,1 8 4 13 7 NE 1025,1 0,0
19.01.2017 17:00:00 10,4 -0,4 8 4 44 24 E 1024,9 0,0
19.01.2017 16:00:00 10,9 2,2 31 17 50 27 E 1024,7 -
19.01.2017 15:00:00 11,3 2,6 37 20 50 27 ESE 1024,5 0,0
19.01.2017 14:00:00 11,4 1,3 29 16 46 25 ESE 1025,0 0,0
19.01.2017 13:00:00 11,6 0,9 16 9 41 22 E 1025,2 -
19.01.2017 12:00:00 12,2 -1,4 15 8 31 17 E 1025,4 0,0
19.01.2017 11:00:00 10,8 -3,0 13 7 26 14 E 1025,4 0,0
19.01.2017 10:00:00 4,9 -3,4 0 0 13 7 N 1025,1 -
19.01.2017 09:00:00 2,6 -4,4 5 3 13 7 NW 1024,8 0,0
19.01.2017 08:00:00 3,1 -2,2 0 0 4 2 N 1023,9 0,0
19.01.2017 07:00:00 2,2 -3,3 4 2 4 2 NW 1023,4 -
19.01.2017 06:00:00 2,0 -4,5 8 4 11 6 NNW 1023,0 0,0
19.01.2017 05:00:00 2,3 -4,5 0 0 8 4 N 1022,9 0,0
19.01.2017 04:00:00 3,0 -3,2 0 0 5 3 N 1022,5 -
19.01.2017 03:00:00 2,6 -4,4 5 3 11 6 NW 1022,3 0,0
19.01.2017 02:00:00 2,6 -5,3 5 3 9 5 N 1022,1 0,0
19.01.2017 01:00:00 4,0 -5,2 0 0 8 4 N 1021,8 -
19.01.2017 00:00:00 3,4 -5,3 8 4 9 5 NNW 1021,7 0,0
18.01.2017 23:00:00 4,5 -4,0 2 1 8 4 W 1021,7 0,0
18.01.2017 22:00:00 4,4 -4,1 5 3 15 8 N 1021,0 -
18.01.2017 21:00:00 5,4 -3,9 9 5 16 9 NW 1020,7 0,0
18.01.2017 20:00:00 5,8 -1,6 9 5 11 6 NW 1020,6 0,0
18.01.2017 19:00:00 6,8 -0,9 8 4 9 5 NNW 1020,2 -
18.01.2017 18:00:00 8,5 -2,5 5 3 8 4 W 1019,8 0,0
18.01.2017 17:00:00 9,4 -3,9 5 3 15 8 WSW 1019,4 0,0
18.01.2017 16:00:00 10,2 -7,1 9 5 15 8 W 1019,1 -
18.01.2017 15:00:00 10,8 -4,1 5 3 15 8 SSW 1018,9 0,0
18.01.2017 14:00:00 11,6 -6,3 4 2 8 4 S 1018,6 0,0
18.01.2017 13:00:00 11,7 -2,9 0 0 8 4 N 1018,8 -
18.01.2017 12:00:00 9,9 -4,9 0 0 8 4 N 1019,2 0,0
18.01.2017 11:00:00 7,7 -3,8 4 2 8 4 ESE 1019,4 0,0
18.01.2017 10:00:00 4,0 -6,9 4 2 8 4 N 1018,9 -
18.01.2017 09:00:00 2,4 -6,5 4 2 11 6 NW 1018,3 0,0
18.01.2017 08:00:00 2,7 -7,2 2 1 5 3 ENE 1017,9 0,0
18.01.2017 07:00:00 2,6 -7,6 5 3 8 4 NW 1017,4 -
18.01.2017 06:00:00 2,7 -7,5 8 4 11 6 NNW 1017,1 0,0
18.01.2017 05:00:00 2,7 -9,0 2 1 9 5 NE 1016,8 0,0
18.01.2017 04:00:00 3,0 -6,2 5 3 8 4 E 1016,7 -
18.01.2017 03:00:00 3,0 -6,7 5 3 13 7 NW 1016,6 0,0
18.01.2017 02:00:00 3,7 -6,3 5 3 15 8 NNW 1016,7 0,0
18.01.2017 01:00:00 3,7 -4,5 11 6 15 8 WNW 1016,7 -
18.01.2017 00:00:00 4,5 -5,3 4 2 8 4 W 1016,7 0,0
17.01.2017 23:00:00 4,4 -5,9 4 2 11 6 WNW 1016,5 0,0
17.01.2017 22:00:00 4,3 -5,5 5 3 15 8 WNW 1016,3 -
17.01.2017 21:00:00 - - - - - - - - -
17.01.2017 20:00:00 4,1 -7,4 11 6 13 7 WNW 1015,7 0,0
17.01.2017 19:00:00 4,4 -5,9 9 5 15 8 NW 1015,3 -
17.01.2017 18:00:00 6,6 -10,2 5 3 11 6 ENE 1014,9 0,0
17.01.2017 17:00:00 6,7 -8,9 2 1 15 8 ENE 1014,3 0,0
17.01.2017 16:00:00 7,5 -10,3 13 7 22 12 W 1013,9 -
17.01.2017 15:00:00 7,5 -10,8 5 3 15 8 W 1013,8 0,0
17.01.2017 14:00:00 7,2 -13,1 2 1 13 7 WSW 1013,9 0,0
17.01.2017 13:00:00 9,7 -10,5 9 5 24 13 E 1014,2 -
17.01.2017 12:00:00 9,6 -8,5 16 9 28 15 ESE 1014,3 0,0
17.01.2017 11:00:00 7,9 -14,4 8 4 15 8 N 1014,1 0,0
17.01.2017 10:00:00 5,8 -14,3 4 2 9 5 ESE 1013,9 -
17.01.2017 09:00:00 4,2 -10,3 5 3 15 8 SE 1013,4 0,0
17.01.2017 08:00:00 2,3 -13,5 5 3 13 7 SE 1013,1 0,0
17.01.2017 07:00:00 3,3 -17,0 5 3 21 11 NNE 1012,8 -
17.01.2017 06:00:00 3,1 -16,1 5 3 15 8 ENE 1012,4 0,0
17.01.2017 05:00:00 3,7 -17,2 5 3 24 13 NE 1012,4 0,0
17.01.2017 04:00:00 3,4 -16,4 5 3 15 8 NNW 1012,3 -
17.01.2017 03:00:00 3,0 -14,7 0 0 13 7 N 1012,3 0,0
17.01.2017 02:00:00 3,2 -14,5 5 3 21 11 NNW 1012,1 0,0
17.01.2017 01:00:00 3,6 -14,6 5 3 26 14 NNW 1012,6 -

tt = Température de l'air
td = dewpoint
ff = Vitesse du vent
fx = gusts
dd = Direction du vent
ppp = reduced air pressure
rr = Quantités de précipitations

stations d'obs. à proximité